Time;durP1;ratioP1;P1;durP2;ratioP2;P2;SDS_P1;SDS_P2;PMS_P1;PMS_P2;Temp;Humidity;BMP_temperature;BMP_pressure;BME280_temperature;BME280_humidity;BME280_pressure;Samples;Min_cycle;Max_cycle;Signal;HPM_P1;HPM_P2
2023/04/01 00:00:14;;;;;;;;;;;;;;;19.53;45.71;99013.34;4977118;28;19910;-75
2023/04/01 00:02:40;;;;;;;;;;;;;;;19.51;45.73;99013.59;4963069;28;19914;-75
2023/04/01 00:05:05;;;;;;;;;;;;;;;19.49;45.74;99013.78;4971128;28;19921;-73
2023/04/01 00:07:31;;;;;;;;;;;;;;;19.50;45.60;99011.94;4969410;28;20319;-74
2023/04/01 00:09:56;;;;;;;;;;;;;;;19.48;45.61;99012.13;4961509;28;20385;-74
2023/04/01 00:12:21;;;;;;;;;;;;;;;19.47;45.83;99015.88;4976522;28;20371;-74
2023/04/01 00:14:47;;;;;;;;;;;;;;;19.46;45.88;99008.84;4965829;28;19914;-73
2023/04/01 00:17:12;;;;;;;;;;;;;;;19.45;45.57;99015.28;4965834;28;19910;-75
2023/04/01 00:19:37;;;;;;;;;;;;;;;19.45;45.78;99015.28;4970112;28;19914;-74
2023/04/01 00:22:02;;;;;;;;;;;;;;;19.44;45.77;99019.00;4975482;28;19925;-73
2023/04/01 00:24:28;;;;;;;;;;;;;;;19.44;45.50;99012.78;4975658;28;19910;-74
2023/04/01 00:26:53;;;;;;;;;;;;;;;19.42;45.61;99010.31;4980291;28;19934;-74
2023/04/01 00:29:18;;;;;;;;;;;;;;;19.42;45.70;99020.28;4965733;28;19911;-74
2023/04/01 00:31:43;;;;;;;;;;;;;;;19.42;45.55;99012.19;4975799;28;19910;-74
2023/04/01 00:34:08;;;;;;;;;;;;;;;19.41;45.50;99015.91;4975002;28;19910;-74
2023/04/01 00:36:34;;;;;;;;;;;;;;;19.40;45.60;99012.41;4964330;28;19927;-74
2023/04/01 00:38:59;;;;;;;;;;;;;;;19.39;45.86;99015.31;4973054;28;19949;-75
2023/04/01 00:41:25;;;;;;;;;;;;;;;19.39;45.75;99018.03;4965012;28;19915;-75
2023/04/01 00:43:51;;;;;;;;;;;;;;;19.38;45.86;99019.91;4970761;28;20327;-74
2023/04/01 00:46:16;;;;;;;;;;;;;;;19.38;45.55;99022.59;4969710;28;19910;-74
2023/04/01 00:48:42;;;;;;;;;;;;;;;19.36;45.55;99021.13;4970372;28;20290;-74
2023/04/01 00:51:09;;;;;;;;;;;;;;;19.35;45.96;99022.19;4968428;28;19911;-74
2023/04/01 00:53:34;;;;;;;;;;;;;;;19.34;45.96;99025.94;4976537;28;19910;-73
2023/04/01 00:56:01;;;;;;;;;;;;;;;19.33;45.83;99022.41;4972020;28;19974;-74
2023/04/01 00:58:27;;;;;;;;;;;;;;;19.33;45.75;99024.28;4971371;28;20011;-74
2023/04/01 01:00:52;;;;;;;;;;;;;;;19.32;45.60;99028.81;4975979;28;19922;-75
2023/04/01 01:03:17;;;;;;;;;;;;;;;19.32;45.71;99030.69;4969422;28;19950;-74
2023/04/01 01:05:42;;;;;;;;;;;;;;;19.31;45.85;99023.66;4972921;28;19923;-74
2023/04/01 01:08:12;;;;;;;;;;;;;;;19.30;45.81;99033.63;4968396;28;19958;-73
2023/04/01 01:10:38;;;;;;;;;;;;;;;19.29;45.99;99034.66;4964214;28;19969;-74
2023/04/01 01:13:06;;;;;;;;;;;;;;;19.28;45.76;99030.31;4966130;28;19918;-74
2023/04/01 01:15:46;;;;;;;;;;;;;;;19.28;45.55;99024.09;4970845;28;20437;-73
2023/04/01 01:18:11;;;;;;;;;;;;;;;19.28;45.79;99029.47;4964286;28;20379;-74
2023/04/01 01:20:52;;;;;;;;;;;;;;;19.27;45.96;99034.03;4970516;28;19914;-75
2023/04/01 01:23:23;;;;;;;;;;;;;;;19.26;45.79;99036.97;4967248;28;19915;-72
2023/04/01 01:25:48;;;;;;;;;;;;;;;19.25;45.71;99041.53;4964965;28;19910;-75
2023/04/01 01:28:19;;;;;;;;;;;;;;;19.24;45.84;99037.16;4978553;28;20446;-75
2023/04/01 01:31:00;;;;;;;;;;;;;;;19.22;45.88;99032.00;4958898;28;19921;-74
2023/04/01 01:33:30;;;;;;;;;;;;;;;19.23;45.96;99038.22;4974063;28;20422;-75
2023/04/01 01:35:55;;;;;;;;;;;;;;;19.22;45.56;99036.56;4961463;28;19922;-74
2023/04/01 01:38:24;;;;;;;;;;;;;;;19.21;45.88;99040.31;4969037;28;20299;-75
2023/04/01 01:40:53;;;;;;;;;;;;;;;19.21;46.05;99040.31;4969500;28;20437;-75
2023/04/01 01:43:19;;;;;;;;;;;;;;;19.20;45.93;99041.34;4971345;28;19937;-75
2023/04/01 01:45:46;;;;;;;;;;;;;;;19.18;46.00;99044.25;4970049;28;19914;-75
2023/04/01 01:48:11;;;;;;;;;;;;;;;19.19;45.79;99039.69;4969054;28;19978;-75
2023/04/01 01:50:37;;;;;;;;;;;;;;;19.19;45.90;99045.06;4965515;28;19915;-75
2023/04/01 01:53:03;;;;;;;;;;;;;;;19.18;45.69;99046.13;4969406;28;19918;-75
2023/04/01 01:55:29;;;;;;;;;;;;;;;19.17;45.99;99047.16;4977362;28;20013;-75
2023/04/01 01:57:55;;;;;;;;;;;;;;;19.16;46.08;99049.03;4958987;28;19942;-75
2023/04/01 02:00:20;;;;;;;;;;;;;;;19.15;45.79;99051.94;4973162;28;20560;-75
2023/04/01 02:02:46;;;;;;;;;;;;;;;19.14;46.06;99052.97;4972118;28;19953;-75
2023/04/01 02:05:11;;;;;;;;;;;;;;;19.14;45.74;99052.97;4968403;28;19917;-75
2023/04/01 02:07:36;;;;;;;;;;;;;;;19.14;46.03;99055.69;4972480;28;20136;-75
2023/04/01 02:10:02;;;;;;;;;;;;;;;19.13;45.89;99057.53;4962881;28;20386;-75
2023/04/01 02:12:27;;;;;;;;;;;;;;;19.13;45.94;99057.53;4963294;28;19938;-75
2023/04/01 02:14:54;;;;;;;;;;;;;;;19.12;45.94;99058.59;4965757;28;20375;-75
2023/04/01 02:17:20;;;;;;;;;;;;;;;19.12;45.98;99057.78;4972948;28;19917;-74
2023/04/01 02:19:47;;;;;;;;;;;;;;;19.11;45.94;99061.47;4967970;28;19914;-74
2023/04/01 02:22:13;;;;;;;;;;;;;;;19.12;45.75;99065.84;4979817;28;19936;-74
2023/04/01 02:24:38;;;;;;;;;;;;;;;19.10;45.85;99073.31;4954969;28;19966;-74
2023/04/01 02:27:04;;;;;;;;;;;;;;;19.09;45.82;99071.66;4976001;28;20395;-74
2023/04/01 02:29:29;;;;;;;;;;;;;;;19.09;45.88;99074.34;4968382;28;19966;-74
2023/04/01 02:31:54;;;;;;;;;;;;;;;19.07;45.93;99071.84;4968093;28;19910;-75
2023/04/01 02:34:20;;;;;;;;;;;;;;;19.07;46.03;99077.25;4971067;28;19910;-76
2023/04/01 02:36:45;;;;;;;;;;;;;;;19.07;46.05;99077.25;4966871;28;20467;-74
2023/04/01 02:39:10;;;;;;;;;;;;;;;19.06;45.97;99080.16;4965078;28;19917;-74
2023/04/01 02:41:40;;;;;;;;;;;;;;;19.06;46.01;99080.16;4966015;28;20016;-75
2023/04/01 02:44:06;;;;;;;;;;;;;;;19.05;45.89;99083.91;4969985;28;19996;-74
2023/04/01 02:46:31;;;;;;;;;;;;;;;19.05;45.83;99086.59;4969091;28;19909;-74
2023/04/01 02:48:56;;;;;;;;;;;;;;;19.04;46.02;99080.38;4972749;28;19934;-79
2023/04/01 02:51:21;;;;;;;;;;;;;;;19.03;45.83;99084.13;4966326;28;19915;-77
2023/04/01 02:53:46;;;;;;;;;;;;;;;19.03;45.92;99086.81;4968052;28;19961;-76
2023/04/01 02:56:12;;;;;;;;;;;;;;;19.02;45.90;99087.00;4968499;28;19925;-76
2023/04/01 02:58:37;;;;;;;;;;;;;;;19.02;45.88;99078.94;4958836;28;19914;-77
2023/04/01 03:01:02;;;;;;;;;;;;;;;19.01;46.02;99085.38;4975681;28;19968;-74
2023/04/01 03:03:27;;;;;;;;;;;;;;;19.01;46.00;99090.75;4965615;28;20021;-75
2023/04/01 03:05:55;;;;;;;;;;;;;;;19.01;46.01;99096.97;4968343;28;19911;-71
2023/04/01 03:08:20;;;;;;;;;;;;;;;19.01;46.26;99098.84;4966866;28;19953;-72
2023/04/01 03:10:45;;;;;;;;;;;;;;;19.00;46.50;99098.00;4965709;28;19914;-71
2023/04/01 03:13:10;;;;;;;;;;;;;;;19.00;46.74;99094.50;4960890;28;19911;-72
2023/04/01 03:15:36;;;;;;;;;;;;;;;19.01;46.62;99098.84;4965993;28;19909;-72
2023/04/01 03:18:01;;;;;;;;;;;;;;;19.01;47.00;99106.91;4967834;28;20367;-72
2023/04/01 03:20:26;;;;;;;;;;;;;;;19.01;47.01;99104.22;4967259;28;19910;-72
2023/04/01 03:22:51;;;;;;;;;;;;;;;19.02;47.10;99106.69;4974100;28;20363;-73
2023/04/01 03:25:17;;;;;;;;;;;;;;;19.03;47.26;99107.50;4959520;28;20109;-74
2023/04/01 03:27:42;;;;;;;;;;;;;;;19.04;47.28;99109.19;4965685;28;20392;-73
2023/04/01 03:30:08;;;;;;;;;;;;;;;19.05;46.97;99114.34;4967505;28;19922;-72
2023/04/01 03:32:33;;;;;;;;;;;;;;;19.04;47.33;99106.50;4960380;28;19937;-74
2023/04/01 03:34:58;;;;;;;;;;;;;;;19.05;47.11;99113.53;4971643;28;19911;-71
2023/04/01 03:37:24;;;;;;;;;;;;;;;19.05;47.53;99122.44;4964505;28;19968;-72
2023/04/01 03:39:49;;;;;;;;;;;;;;;19.05;47.66;99119.75;4968698;28;19921;-74
2023/04/01 03:42:15;;;;;;;;;;;;;;;19.07;47.50;99124.91;4967192;28;20011;-77
2023/04/01 03:44:40;;;;;;;;;;;;;;;19.08;47.65;99122.00;4969486;28;19935;-75
2023/04/01 03:47:05;;;;;;;;;;;;;;;19.10;47.41;99121.78;4955493;28;19910;-74
2023/04/01 03:49:31;;;;;;;;;;;;;;;19.11;47.39;99126.97;4971140;28;19916;-75
2023/04/01 03:51:57;;;;;;;;;;;;;;;19.10;47.52;99130.69;4970487;28;19946;-75
2023/04/01 03:54:22;;;;;;;;;;;;;;;19.11;47.33;99139.59;4967332;28;19926;-76
2023/04/01 03:56:47;;;;;;;;;;;;;;;19.12;47.52;99135.91;4974414;28;19914;-75
2023/04/01 03:59:12;;;;;;;;;;;;;;;19.12;47.23;99134.03;4960167;28;19917;-74
2023/04/01 04:01:38;;;;;;;;;;;;;;;19.13;47.13;99137.53;4967491;28;19925;-74
2023/04/01 04:04:03;;;;;;;;;;;;;;;19.12;47.17;99138.59;4963953;28;19919;-76
2023/04/01 04:06:28;;;;;;;;;;;;;;;19.12;47.15;99141.28;4975451;28;20381;-76
2023/04/01 04:08:53;;;;;;;;;;;;;;;19.12;46.95;99133.19;4963390;28;19911;-76
2023/04/01 04:11:19;;;;;;;;;;;;;;;19.12;46.96;99135.91;4967697;28;20338;-76
2023/04/01 04:13:45;;;;;;;;;;;;;;;19.11;47.04;99143.13;4967615;28;19916;-76
2023/04/01 04:16:10;;;;;;;;;;;;;;;19.12;46.95;99146.66;4967750;28;19910;-75
2023/04/01 04:18:36;;;;;;;;;;;;;;;19.11;46.92;99145.81;4973476;28;19954;-76
2023/04/01 04:21:02;;;;;;;;;;;;;;;19.12;46.82;99143.97;4950471;28;19914;-76
2023/04/01 04:23:29;;;;;;;;;;;;;;;19.11;46.83;99143.13;4972724;28;19914;-76
2023/04/01 04:25:54;;;;;;;;;;;;;;;19.11;46.67;99148.50;4961046;28;19922;-76
2023/04/01 04:28:19;;;;;;;;;;;;;;;19.12;46.68;99152.06;4965602;28;19910;-75
2023/04/01 04:30:45;;;;;;;;;;;;;;;19.12;46.58;99155.56;4966750;28;19910;-75
2023/04/01 04:33:10;;;;;;;;;;;;;;;19.13;46.40;99156.41;4967977;28;19936;-75
2023/04/01 04:35:35;;;;;;;;;;;;;;;19.12;46.52;99155.56;4965475;28;19910;-74
2023/04/01 04:38:00;;;;;;;;;;;;;;;19.14;46.45;99155.34;4968654;28;19915;-74
2023/04/01 04:40:26;;;;;;;;;;;;;;;19.15;46.55;99154.31;4965048;28;19918;-75
2023/04/01 04:42:51;;;;;;;;;;;;;;;19.16;46.26;99161.38;4970261;28;19914;-75
2023/04/01 04:45:16;;;;;;;;;;;;;;;19.16;46.45;99164.88;4974336;28;19958;-77
2023/04/01 04:47:42;;;;;;;;;;;;;;;19.17;46.26;99166.53;4942016;28;19921;-77
2023/04/01 04:50:07;;;;;;;;;;;;;;;19.19;46.33;99169.00;4974717;28;19981;-77
2023/04/01 04:52:32;;;;;;;;;;;;;;;19.20;46.21;99167.97;4973339;28;19909;-77
2023/04/01 04:54:57;;;;;;;;;;;;;;;19.21;46.27;99170.47;4963333;28;19918;-76
2023/04/01 04:57:23;;;;;;;;;;;;;;;19.20;46.17;99176.91;4964527;28;19914;-76
2023/04/01 04:59:48;;;;;;;;;;;;;;;19.22;46.04;99177.50;4965083;28;19910;-75
2023/04/01 05:02:13;;;;;;;;;;;;;;;19.24;45.89;99182.66;4967239;28;19914;-76
2023/04/01 05:04:38;;;;;;;;;;;;;;;19.25;45.86;99181.63;4969361;28;19917;-76
2023/04/01 05:07:03;;;;;;;;;;;;;;;19.27;45.84;99189.50;4977773;28;19910;-74
2023/04/01 05:09:28;;;;;;;;;;;;;;;19.27;45.66;99189.50;4961747;28;19910;-75
2023/04/01 05:11:54;;;;;;;;;;;;;;;19.28;45.93;99191.16;4977365;28;19913;-75
2023/04/01 05:14:19;;;;;;;;;;;;;;;19.29;46.05;99188.25;4962059;28;20388;-76
2023/04/01 05:16:44;;;;;;;;;;;;;;;19.31;45.80;99193.44;4970855;28;19992;-75
2023/04/01 05:19:09;;;;;;;;;;;;;;;19.32;45.60;99197.75;4970476;28;19911;-75
2023/04/01 05:21:35;;;;;;;;;;;;;;;19.33;45.88;99196.75;4961770;28;19921;-76
2023/04/01 05:24:00;;;;;;;;;;;;;;;19.34;45.50;99196.53;4973105;28;19910;-76
2023/04/01 05:26:25;;;;;;;;;;;;;;;19.37;45.69;99200.66;4965822;28;19914;-76
2023/04/01 05:28:50;;;;;;;;;;;;;;;19.38;45.64;99203.16;4966650;28;19914;-76
2023/04/01 05:31:15;;;;;;;;;;;;;;;19.38;45.68;99202.31;4969334;28;19914;-77
2023/04/01 05:33:40;;;;;;;;;;;;;;;19.40;45.50;99208.31;4972125;28;20374;-77
2023/04/01 05:36:15;;;;;;;;;;;;;;;19.42;45.26;99219.72;4962183;28;19918;-75
2023/04/01 05:38:42;;;;;;;;;;;;;;;19.43;45.10;99215.97;4975492;28;20814;-76
2023/04/01 05:41:07;;;;;;;;;;;;;;;19.43;45.21;99219.50;4971588;28;19961;-76
2023/04/01 05:43:32;;;;;;;;;;;;;;;19.45;45.57;99228.22;4964044;28;20000;-76
2023/04/01 05:45:57;;;;;;;;;;;;;;;19.47;45.22;99222.59;4976195;28;20294;-76
2023/04/01 05:48:23;;;;;;;;;;;;;;;19.47;45.33;99231.50;4971050;28;19987;-75
2023/04/01 05:50:48;;;;;;;;;;;;;;;19.49;45.10;99234.81;4972153;28;19918;-76
2023/04/01 05:53:13;;;;;;;;;;;;;;;19.51;45.22;99233.78;4970455;28;19938;-76
2023/04/01 05:55:38;;;;;;;;;;;;;;;19.52;45.19;99247.03;4967388;28;20290;-75
2023/04/01 05:58:03;;;;;;;;;;;;;;;19.53;45.07;99237.09;4968969;28;20386;-77
2023/04/01 06:00:29;;;;;;;;;;;;;;;19.55;44.95;99245.81;4967620;28;19934;-75
2023/04/01 06:02:54;;;;;;;;;;;;;;;19.56;45.20;99244.75;4973602;28;20368;-76
2023/04/01 06:05:23;;;;;;;;;;;;;;;19.58;45.11;99251.59;4972005;28;20270;-76
2023/04/01 06:07:49;;;;;;;;;;;;;;;19.59;45.09;99255.94;4963609;28;19910;-76
2023/04/01 06:10:18;;;;;;;;;;;;;;;19.61;44.93;99255.75;4971826;28;19945;-76
2023/04/01 06:12:44;;;;;;;;;;;;;;;19.62;44.73;99257.41;4973460;28;19914;-76
2023/04/01 06:15:09;;;;;;;;;;;;;;;19.63;45.04;99265.28;4959647;28;19917;-75
2023/04/01 06:17:46;;;;;;;;;;;;;;;19.64;44.82;99263.41;4973201;28;20021;-75
2023/04/01 06:20:19;;;;;;;;;;;;;;;19.67;44.67;99268.41;4955276;28;19939;-76
2023/04/01 06:23:05;;;;;;;;;;;;;;;19.68;44.72;99272.75;4968519;28;19919;-76
2023/04/01 06:25:36;;;;;;;;;;;;;;;19.70;44.79;99279.56;4968323;28;19992;-77
2023/04/01 06:28:05;;;;;;;;;;;;;;;19.72;44.57;99274.78;4969465;28;19967;-76
2023/04/01 06:30:30;;;;;;;;;;;;;;;19.73;44.56;99279.13;4963694;28;20510;-77
2023/04/01 06:33:04;;;;;;;;;;;;;;;19.75;44.42;99278.91;4970720;28;19910;-76
2023/04/01 06:35:42;;;;;;;;;;;;;;;19.77;44.44;99289.50;4964995;28;20016;-76
2023/04/01 06:38:25;;;;;;;;;;;;;;;19.79;44.64;99295.50;4973144;28;19978;-75
2023/04/01 06:41:00;;;;;;;;;;;;;;;19.81;44.43;99285.34;4967994;28;19911;-75
2023/04/01 06:43:31;;;;;;;;;;;;;;;19.81;44.43;99296.97;4960025;28;19911;-75
2023/04/01 06:46:02;;;;;;;;;;;;;;;19.84;44.44;99293.00;4975251;28;20371;-76
2023/04/01 06:48:31;;;;;;;;;;;;;;;19.85;44.46;99303.56;4961525;28;19917;-76
2023/04/01 06:51:02;;;;;;;;;;;;;;;19.87;44.43;99306.06;4969359;28;19962;-75
2023/04/01 06:53:46;;;;;;;;;;;;;;;19.88;44.19;99308.56;4960178;28;19911;-75
2023/04/01 06:56:13;;;;;;;;;;;;;;;19.90;44.37;99311.84;4964957;28;19986;-76
2023/04/01 06:58:57;;;;;;;;;;;;;;;19.92;44.22;99314.31;4966737;28;19914;-76
2023/04/01 07:01:28;;;;;;;;;;;;;;;19.92;44.18;99319.72;4971949;28;20385;-77
2023/04/01 07:03:54;;;;;;;;;;;;;;;19.93;44.34;99324.91;4959052;28;19910;-77
2023/04/01 07:06:30;;;;;;;;;;;;;;;19.94;44.21;99317.66;4972671;28;19938;-76
2023/04/01 07:08:55;;;;;;;;;;;;;;;19.96;44.33;99327.19;4970023;28;20324;-76
2023/04/01 07:11:26;;;;;;;;;;;;;;;19.96;43.97;99327.19;4971690;28;19918;-76
2023/04/01 07:13:53;;;;;;;;;;;;;;;19.98;44.08;99330.50;4974514;28;19922;-75
2023/04/01 07:16:27;;;;;;;;;;;;;;;20.00;43.94;99338.38;4968257;28;20013;-75
2023/04/01 07:19:01;;;;;;;;;;;;;;;20.01;43.83;99334.66;4971152;28;19918;-76
2023/04/01 07:21:40;;;;;;;;;;;;;;;20.03;43.87;99343.34;4962647;28;20020;-76
2023/04/01 07:24:06;;;;;;;;;;;;;;;20.05;44.21;99352.06;4959474;28;19911;-76
2023/04/01 07:26:32;;;;;;;;;;;;;;;20.06;43.88;99355.59;4968425;28;20375;-76
2023/04/01 07:28:57;;;;;;;;;;;;;;;20.09;43.75;99357.84;4972661;28;20005;-75
2023/04/01 07:31:41;;;;;;;;;;;;;;;20.10;44.11;99364.91;4967702;28;20248;-76
2023/04/01 07:34:06;;;;;;;;;;;;;;;20.11;43.94;99370.09;4972492;28;19910;-76
2023/04/01 07:36:50;;;;;;;;;;;;;;;20.13;43.80;99378.78;4960588;28;19973;-75
2023/04/01 07:39:34;;;;;;;;;;;;;;;20.15;43.70;99376.72;4972324;28;19945;-76
2023/04/01 07:42:06;;;;;;;;;;;;;;;20.16;43.93;99388.31;4964407;28;20334;-76
2023/04/01 07:44:50;;;;;;;;;;;;;;;20.16;43.53;99385.63;4966214;28;19910;-76
2023/04/01 07:47:21;;;;;;;;;;;;;;;20.18;43.72;99391.66;4969328;28;19918;-76
2023/04/01 07:49:53;;;;;;;;;;;;;;;20.19;43.58;99390.59;4963353;28;19918;-73
2023/04/01 07:52:18;;;;;;;;;;;;;;;20.20;43.61;99389.56;4966916;28;19914;-76
2023/04/01 07:54:49;;;;;;;;;;;;;;;20.21;43.80;99400.13;4967917;28;19918;-76
2023/04/01 07:57:50;;;;;;;;;;;;;;;20.24;43.73;99404.28;4962531;28;19958;-76
2023/04/01 08:00:38;;;;;;;;;;;;;;;20.25;43.74;99403.22;4951996;29;19914;-76
2023/04/01 08:03:08;;;;;;;;;;;;;;;20.27;43.41;99416.53;4913789;29;19915;-75
2023/04/01 08:05:35;;;;;;;;;;;;;;;20.27;43.46;99416.53;4912520;29;19911;-76
2023/04/01 08:08:06;;;;;;;;;;;;;;;20.29;43.52;99423.34;4906366;29;19911;-76
2023/04/01 08:10:50;;;;;;;;;;;;;;;20.30;43.62;99419.59;4914044;29;19918;-76
2023/04/01 08:13:23;;;;;;;;;;;;;;;20.32;43.37;99422.94;4920529;29;20050;-76
2023/04/01 08:15:53;;;;;;;;;;;;;;;20.34;43.58;99425.41;4911823;29;19922;-75
2023/04/01 08:18:26;;;;;;;;;;;;;;;20.34;43.54;99428.94;4897205;29;19922;-76
2023/04/01 08:21:02;;;;;;;;;;;;;;;20.37;43.27;99433.09;4914767;29;19998;-75
2023/04/01 08:23:28;;;;;;;;;;;;;;;20.39;43.22;99437.25;4916843;29;20035;-75
2023/04/01 08:25:56;;;;;;;;;;;;;;;20.40;43.40;99438.06;4912554;29;19923;-75
2023/04/01 08:28:29;;;;;;;;;;;;;;;20.41;43.32;99445.94;4918138;29;19944;-75
2023/04/01 08:30:56;;;;;;;;;;;;;;;20.41;43.27;99447.81;4915815;29;19942;-76
2023/04/01 08:33:26;;;;;;;;;;;;;;;20.42;43.50;99450.28;4920316;29;19950;-76
2023/04/01 08:35:52;;;;;;;;;;;;;;;20.44;43.47;99455.50;4923038;29;19917;-76
2023/04/01 08:38:20;;;;;;;;;;;;;;;20.45;43.17;99452.56;4931556;29;19943;-76
2023/04/01 08:40:57;;;;;;;;;;;;;;;20.46;43.12;99462.31;4950287;28;20422;-76
2023/04/01 08:43:30;;;;;;;;;;;;;;;20.48;43.16;99459.47;4964438;28;19910;-75
2023/04/01 08:46:01;;;;;;;;;;;;;;;20.50;43.29;99465.47;4969305;28;19922;-76
2023/04/01 08:48:40;;;;;;;;;;;;;;;20.53;43.26;99467.75;4968041;28;20013;-76
2023/04/01 08:51:11;;;;;;;;;;;;;;;20.54;43.34;99469.38;4971946;28;19997;-74
2023/04/01 08:53:55;;;;;;;;;;;;;;;20.55;43.01;99471.03;4969988;28;19918;-74
2023/04/01 08:56:22;;;;;;;;;;;;;;;20.57;43.21;99476.25;4970959;28;20034;-74
2023/04/01 08:58:53;;;;;;;;;;;;;;;20.58;42.93;99475.19;4967602;28;19911;-75
2023/04/01 09:01:22;;;;;;;;;;;;;;;20.59;43.28;99479.53;4974358;28;19969;-77
2023/04/01 09:04:06;;;;;;;;;;;;;;;20.61;43.23;99482.88;4973990;28;20347;-76
2023/04/01 09:06:50;;;;;;;;;;;;;;;20.61;42.95;99474.78;4967250;28;19933;-75
2023/04/01 09:09:25;;;;;;;;;;;;;;;20.61;43.12;99483.69;4969345;28;19962;-76
2023/04/01 09:11:53;;;;;;;;;;;;;;;20.63;42.91;99486.19;4962516;28;19933;-76
2023/04/01 09:14:24;;;;;;;;;;;;;;;20.63;42.95;99492.41;4972093;28;20375;-76
2023/04/01 09:16:49;;;;;;;;;;;;;;;20.64;43.02;99494.06;4966510;28;19918;-75
2023/04/01 09:19:15;;;;;;;;;;;;;;;20.65;43.26;99501.13;4968566;28;19911;-75
2023/04/01 09:21:46;;;;;;;;;;;;;;;20.66;42.97;99504.66;4969759;28;19921;-75
2023/04/01 09:24:24;;;;;;;;;;;;;;;20.68;42.95;99506.09;4974266;28;19947;-75
2023/04/01 09:26:49;;;;;;;;;;;;;;;20.70;43.19;99511.28;4962985;28;19962;-75
2023/04/01 09:29:33;;;;;;;;;;;;;;;20.69;43.14;99507.75;4978487;28;19917;-75
2023/04/01 09:32:11;;;;;;;;;;;;;;;20.70;43.16;99514.00;4960957;28;19915;-74
2023/04/01 09:34:57;;;;;;;;;;;;;;;20.72;42.91;99518.13;4973144;28;19941;-75
2023/04/01 09:37:29;;;;;;;;;;;;;;;20.72;43.09;99517.28;4965727;28;19922;-76
2023/04/01 09:40:13;;;;;;;;;;;;;;;20.74;43.11;99522.50;4955486;28;19910;-76
2023/04/01 09:42:42;;;;;;;;;;;;;;;20.75;42.93;99529.56;4967346;28;19926;-76
2023/04/01 09:45:09;;;;;;;;;;;;;;;20.74;42.91;99525.19;4964881;28;19917;-76
2023/04/01 09:47:40;;;;;;;;;;;;;;;20.74;43.27;99536.00;4964585;28;19937;-76
2023/04/01 09:50:41;;;;;;;;;;;;;;;20.75;43.20;99532.25;4968713;28;19934;-75
2023/04/01 09:53:19;;;;;;;;;;;;;;;20.77;43.00;99536.38;4930170;29;19918;-75
2023/04/01 09:55:56;;;;;;;;;;;;;;;20.78;43.24;99540.75;4920100;29;19911;-74
2023/04/01 09:58:29;;;;;;;;;;;;;;;20.79;43.14;99545.13;4920924;29;19910;-74
2023/04/01 10:01:21;;;;;;;;;;;;;;;20.81;42.83;99547.59;4930499;29;19922;-75
2023/04/01 10:03:49;;;;;;;;;;;;;;;20.82;42.79;99552.81;4932775;29;19924;-76
2023/04/01 10:06:17;;;;;;;;;;;;;;;20.84;43.09;99553.41;4929905;29;19970;-76
2023/04/01 10:09:01;;;;;;;;;;;;;;;20.86;43.04;99559.44;4935317;29;19963;-76
2023/04/01 10:11:32;;;;;;;;;;;;;;;20.87;43.04;99561.09;4928721;29;19942;-76
2023/04/01 10:14:03;;;;;;;;;;;;;;;20.90;42.90;99563.38;4929246;29;19946;-76
2023/04/01 10:16:39;;;;;;;;;;;;;;;20.93;42.85;99565.63;4930678;29;19914;-76
2023/04/01 10:19:20;;;;;;;;;;;;;;;20.95;42.55;99563.53;4916367;29;19927;-76
2023/04/01 10:21:51;;;;;;;;;;;;;;;20.97;42.85;99569.56;4912611;29;19963;-76
2023/04/01 10:24:33;;;;;;;;;;;;;;;21.01;42.83;99574.53;4934708;29;19915;-76
2023/04/01 10:27:01;;;;;;;;;;;;;;;21.03;42.50;99577.88;4946232;28;19914;-77
2023/04/01 10:29:26;;;;;;;;;;;;;;;21.05;42.77;99579.28;4976763;28;19910;-75
2023/04/01 10:31:55;;;;;;;;;;;;;;;21.08;42.53;99580.75;4962194;28;19915;-75
2023/04/01 10:34:20;;;;;;;;;;;;;;;21.10;42.34;99575.94;4969125;28;20365;-76
2023/04/01 10:37:04;;;;;;;;;;;;;;;21.13;42.29;99583.63;4970154;28;19925;-76
2023/04/01 10:39:33;;;;;;;;;;;;;;;21.14;42.58;99591.50;4963235;28;19914;-74
2023/04/01 10:42:01;;;;;;;;;;;;;;;21.15;42.47;99593.19;4965156;28;19914;-75
2023/04/01 10:44:31;;;;;;;;;;;;;;;21.16;42.63;99600.25;4966100;28;20017;-75
2023/04/01 10:47:03;;;;;;;;;;;;;;;21.18;42.49;99595.44;4973464;28;19953;-75
2023/04/01 10:49:37;;;;;;;;;;;;;;;21.19;42.38;99598.97;4967819;28;19973;-76
2023/04/01 10:52:11;;;;;;;;;;;;;;;21.21;42.24;99599.59;4969649;28;19915;-74
2023/04/01 10:54:44;;;;;;;;;;;;;;;21.22;42.48;99602.06;4968458;28;19917;-75
2023/04/01 10:57:28;;;;;;;;;;;;;;;21.23;42.16;99606.44;4967562;28;19921;-75
2023/04/01 11:00:13;;;;;;;;;;;;;;;21.25;42.53;99600.00;4957184;28;19910;-75
2023/04/01 11:02:38;;;;;;;;;;;;;;;21.26;42.38;99610.59;4975188;28;19921;-75
2023/04/01 11:05:22;;;;;;;;;;;;;;;21.26;42.35;99612.47;4963607;28;19981;-76
2023/04/01 11:07:59;;;;;;;;;;;;;;;21.27;42.45;99612.25;4963853;28;19970;-75
2023/04/01 11:10:43;;;;;;;;;;;;;;;21.28;42.19;99613.94;4967454;28;19969;-76
2023/04/01 11:13:16;;;;;;;;;;;;;;;21.31;42.12;99618.06;4967077;28;19919;-76
2023/04/01 11:16:01;;;;;;;;;;;;;;;21.30;42.18;99625.34;4966438;28;20282;-76
2023/04/01 11:18:26;;;;;;;;;;;;;;;21.30;42.46;99619.94;4973319;28;19910;-76
2023/04/01 11:21:06;;;;;;;;;;;;;;;21.32;42.22;99628.66;4958552;28;19942;-75
2023/04/01 11:23:35;;;;;;;;;;;;;;;21.33;42.46;99630.34;4973375;28;19916;-76
2023/04/01 11:26:19;;;;;;;;;;;;;;;21.33;42.15;99630.34;4971688;28;19910;-76
2023/04/01 11:28:47;;;;;;;;;;;;;;;21.33;42.38;99630.34;4962157;28;20005;-75
2023/04/01 11:31:42;;;;;;;;;;;;;;;21.35;42.53;99636.34;4968895;28;19925;-75
2023/04/01 11:34:21;;;;;;;;;;;;;;;21.37;42.32;99639.69;4953999;28;19910;-76
2023/04/01 11:36:56;;;;;;;;;;;;;;;21.40;42.61;99644.66;4962203;28;19922;-75
2023/04/01 11:39:28;;;;;;;;;;;;;;;21.40;42.19;99647.34;4963124;28;19933;-75
2023/04/01 11:42:02;;;;;;;;;;;;;;;21.40;42.24;99658.16;4963276;28;19922;-75
2023/04/01 11:44:27;;;;;;;;;;;;;;;21.41;42.42;99662.56;4953805;28;19953;-75
2023/04/01 11:47:02;;;;;;;;;;;;;;;21.43;42.23;99667.72;4954363;28;19910;-74
2023/04/01 11:49:27;;;;;;;;;;;;;;;21.43;42.26;99665.03;4958218;28;19912;-75
2023/04/01 11:51:55;;;;;;;;;;;;;;;21.42;42.36;99675.03;4970233;28;19914;-75
2023/04/01 11:54:44;;;;;;;;;;;;;;;21.43;42.42;99678.56;4958104;28;19981;-75
2023/04/01 11:57:11;;;;;;;;;;;;;;;21.42;42.29;99685.00;4957971;29;19915;-75
2023/04/01 11:59:40;;;;;;;;;;;;;;;21.41;42.30;99689.59;4951074;29;19974;-75
2023/04/01 12:02:05;;;;;;;;;;;;;;;21.41;42.33;99700.41;4931352;29;19921;-75
2023/04/01 12:04:33;;;;;;;;;;;;;;;21.41;42.46;99694.19;4936516;29;20001;-75
2023/04/01 12:07:16;;;;;;;;;;;;;;;21.42;42.61;99702.06;4948023;29;20054;-75
2023/04/01 12:09:50;;;;;;;;;;;;;;;21.42;42.19;99703.94;4932301;29;19915;-75
2023/04/01 12:12:27;;;;;;;;;;;;;;;21.41;42.43;99708.53;4934360;29;19914;-75
2023/04/01 12:15:05;;;;;;;;;;;;;;;21.42;42.38;99714.75;4931620;29;20005;-75
2023/04/01 12:17:39;;;;;;;;;;;;;;;21.43;42.23;99721.81;4949915;29;19910;-76
2023/04/01 12:20:04;;;;;;;;;;;;;;;21.43;42.56;99722.66;4937758;29;19930;-75
2023/04/01 12:22:40;;;;;;;;;;;;;;;21.44;42.25;99729.69;4931615;29;19918;-75
2023/04/01 12:25:24;;;;;;;;;;;;;;;21.44;42.32;99731.59;4936820;29;19918;-74
2023/04/01 12:27:49;;;;;;;;;;;;;;;21.44;42.25;99731.59;4946747;29;19910;-75
2023/04/01 12:30:23;;;;;;;;;;;;;;;21.45;42.42;99733.22;4952717;29;19997;-75
2023/04/01 12:33:00;;;;;;;;;;;;;;;21.45;42.21;99738.66;4931066;29;19915;-75
2023/04/01 12:35:27;;;;;;;;;;;;;;;21.46;42.46;99743.03;4962204;28;19911;-75
2023/04/01 12:38:11;;;;;;;;;;;;;;;21.45;42.31;99749.47;4966281;28;19975;-76
2023/04/01 12:40:39;;;;;;;;;;;;;;;21.46;42.38;99743.03;4967029;28;19918;-75
2023/04/01 12:43:07;;;;;;;;;;;;;;;21.46;42.38;99756.56;4960641;28;19946;-75
2023/04/01 12:45:33;;;;;;;;;;;;;;;21.48;42.45;99759.84;4969699;28;19981;-75
2023/04/01 12:48:17;;;;;;;;;;;;;;;21.49;42.44;99764.22;4962721;28;19915;-75
2023/04/01 12:50:51;;;;;;;;;;;;;;;21.50;42.20;99771.31;4964092;28;19914;-74
2023/04/01 12:53:16;;;;;;;;;;;;;;;21.50;42.34;99776.72;4963391;28;19992;-75
2023/04/01 12:55:45;;;;;;;;;;;;;;;21.51;42.51;99785.66;4962704;28;19911;-74
2023/04/01 12:58:31;;;;;;;;;;;;;;;21.51;42.28;99777.53;4976891;28;19938;-73
2023/04/01 13:00:59;;;;;;;;;;;;;;;21.52;42.45;99790.00;4969977;28;19911;-75